sensor_id;sensor_type;location;lat;lon;timestamp;temperature;humidity
53264;DHT22;39153;52.680;6.172;2023-05-24T00:01:36;10.10;99.90
53264;DHT22;39153;52.680;6.172;2023-05-24T00:04:02;10.00;99.90
53264;DHT22;39153;52.680;6.172;2023-05-24T00:06:28;10.00;99.90
53264;DHT22;39153;52.680;6.172;2023-05-24T00:08:54;10.00;99.90
53264;DHT22;39153;52.680;6.172;2023-05-24T00:11:20;10.00;99.90
53264;DHT22;39153;52.680;6.172;2023-05-24T00:13:47;9.90;99.90
53264;DHT22;39153;52.680;6.172;2023-05-24T00:16:13;10.00;99.90
53264;DHT22;39153;52.680;6.172;2023-05-24T00:18:39;9.90;99.90
53264;DHT22;39153;52.680;6.172;2023-05-24T00:21:08;9.90;99.90
53264;DHT22;39153;52.680;6.172;2023-05-24T00:23:35;10.00;99.90
53264;DHT22;39153;52.680;6.172;2023-05-24T00:26:03;9.90;99.90
53264;DHT22;39153;52.680;6.172;2023-05-24T00:28:29;9.90;99.90
53264;DHT22;39153;52.680;6.172;2023-05-24T00:30:56;9.90;99.90
53264;DHT22;39153;52.680;6.172;2023-05-24T00:33:22;9.80;99.90
53264;DHT22;39153;52.680;6.172;2023-05-24T00:35:49;9.80;99.90
53264;DHT22;39153;52.680;6.172;2023-05-24T00:38:18;9.70;99.90
53264;DHT22;39153;52.680;6.172;2023-05-24T00:40:44;9.70;99.90
53264;DHT22;39153;52.680;6.172;2023-05-24T00:43:10;9.60;99.90
53264;DHT22;39153;52.680;6.172;2023-05-24T00:45:36;9.60;99.90
53264;DHT22;39153;52.680;6.172;2023-05-24T00:48:02;9.60;99.90
53264;DHT22;39153;52.680;6.172;2023-05-24T00:50:28;9.60;99.90
53264;DHT22;39153;52.680;6.172;2023-05-24T00:52:55;9.60;99.90
53264;DHT22;39153;52.680;6.172;2023-05-24T00:55:23;9.60;99.90
53264;DHT22;39153;52.680;6.172;2023-05-24T00:57:50;9.60;99.90
53264;DHT22;39153;52.680;6.172;2023-05-24T01:00:17;9.60;99.90
53264;DHT22;39153;52.680;6.172;2023-05-24T01:02:43;9.60;99.90
53264;DHT22;39153;52.680;6.172;2023-05-24T01:05:08;9.50;99.90
53264;DHT22;39153;52.680;6.172;2023-05-24T01:08:03;9.60;99.90
53264;DHT22;39153;52.680;6.172;2023-05-24T01:10:50;9.60;99.90
53264;DHT22;39153;52.680;6.172;2023-05-24T01:13:35;9.50;99.90
53264;DHT22;39153;52.680;6.172;2023-05-24T01:18:59;9.50;99.90
53264;DHT22;39153;52.680;6.172;2023-05-24T01:21:50;9.50;99.90
53264;DHT22;39153;52.680;6.172;2023-05-24T01:24:38;9.50;99.90
53264;DHT22;39153;52.680;6.172;2023-05-24T01:27:16;9.60;99.90
53264;DHT22;39153;52.680;6.172;2023-05-24T01:29:42;9.50;99.90
53264;DHT22;39153;52.680;6.172;2023-05-24T01:32:09;9.50;99.90
53264;DHT22;39153;52.680;6.172;2023-05-24T01:34:34;9.60;99.90
53264;DHT22;39153;52.680;6.172;2023-05-24T01:37:00;9.60;99.90
53264;DHT22;39153;52.680;6.172;2023-05-24T01:39:27;9.60;99.90
53264;DHT22;39153;52.680;6.172;2023-05-24T01:50:16;9.70;99.90
53264;DHT22;39153;52.680;6.172;2023-05-24T01:52:43;9.70;99.90
53264;DHT22;39153;52.680;6.172;2023-05-24T01:55:13;9.60;99.90
53264;DHT22;39153;52.680;6.172;2023-05-24T01:57:43;9.70;99.90
53264;DHT22;39153;52.680;6.172;2023-05-24T02:00:09;9.70;99.90
53264;DHT22;39153;52.680;6.172;2023-05-24T02:02:36;9.70;99.90
53264;DHT22;39153;52.680;6.172;2023-05-24T02:05:02;9.70;99.90
53264;DHT22;39153;52.680;6.172;2023-05-24T02:07:28;9.70;99.90
53264;DHT22;39153;52.680;6.172;2023-05-24T02:09:54;9.70;99.90
53264;DHT22;39153;52.680;6.172;2023-05-24T02:12:19;9.70;99.90
53264;DHT22;39153;52.680;6.172;2023-05-24T02:14:45;9.70;99.90
53264;DHT22;39153;52.680;6.172;2023-05-24T02:17:12;9.70;99.90
53264;DHT22;39153;52.680;6.172;2023-05-24T02:19:37;9.60;99.90
53264;DHT22;39153;52.680;6.172;2023-05-24T02:22:03;9.60;99.90
53264;DHT22;39153;52.680;6.172;2023-05-24T02:24:29;9.60;99.90
53264;DHT22;39153;52.680;6.172;2023-05-24T02:26:55;9.50;99.90
53264;DHT22;39153;52.680;6.172;2023-05-24T02:29:21;9.50;99.90
53264;DHT22;39153;52.680;6.172;2023-05-24T02:31:47;9.50;99.90
53264;DHT22;39153;52.680;6.172;2023-05-24T02:34:16;9.40;99.90
53264;DHT22;39153;52.680;6.172;2023-05-24T02:36:42;9.40;99.90
53264;DHT22;39153;52.680;6.172;2023-05-24T02:39:07;9.30;99.90
53264;DHT22;39153;52.680;6.172;2023-05-24T02:41:33;9.30;99.90
53264;DHT22;39153;52.680;6.172;2023-05-24T02:43:59;9.30;99.90
53264;DHT22;39153;52.680;6.172;2023-05-24T02:46:24;9.20;99.90
53264;DHT22;39153;52.680;6.172;2023-05-24T02:48:50;9.20;99.90
53264;DHT22;39153;52.680;6.172;2023-05-24T02:51:16;9.20;99.90
53264;DHT22;39153;52.680;6.172;2023-05-24T02:53:42;9.10;99.90
53264;DHT22;39153;52.680;6.172;2023-05-24T02:56:08;9.10;99.90
53264;DHT22;39153;52.680;6.172;2023-05-24T02:58:33;9.00;99.90
53264;DHT22;39153;52.680;6.172;2023-05-24T03:01:05;9.00;99.90
53264;DHT22;39153;52.680;6.172;2023-05-24T03:03:30;9.00;99.90
53264;DHT22;39153;52.680;6.172;2023-05-24T03:05:56;9.00;99.90
53264;DHT22;39153;52.680;6.172;2023-05-24T03:08:21;8.90;99.90
53264;DHT22;39153;52.680;6.172;2023-05-24T03:10:47;8.90;99.90
53264;DHT22;39153;52.680;6.172;2023-05-24T03:13:13;8.90;99.90
53264;DHT22;39153;52.680;6.172;2023-05-24T03:15:39;8.90;99.90
53264;DHT22;39153;52.680;6.172;2023-05-24T03:18:05;8.80;99.90
53264;DHT22;39153;52.680;6.172;2023-05-24T03:20:30;8.80;99.90
53264;DHT22;39153;52.680;6.172;2023-05-24T03:22:57;8.80;99.90
53264;DHT22;39153;52.680;6.172;2023-05-24T03:25:23;8.80;99.90
53264;DHT22;39153;52.680;6.172;2023-05-24T03:27:48;8.80;99.90
53264;DHT22;39153;52.680;6.172;2023-05-24T03:30:14;8.80;99.90
53264;DHT22;39153;52.680;6.172;2023-05-24T03:32:40;8.80;99.90
53264;DHT22;39153;52.680;6.172;2023-05-24T03:35:06;8.80;99.90
53264;DHT22;39153;52.680;6.172;2023-05-24T03:37:32;8.80;99.90
53264;DHT22;39153;52.680;6.172;2023-05-24T03:39:57;8.70;99.90
53264;DHT22;39153;52.680;6.172;2023-05-24T03:42:23;8.70;99.90
53264;DHT22;39153;52.680;6.172;2023-05-24T03:44:49;8.70;99.90
53264;DHT22;39153;52.680;6.172;2023-05-24T03:47:14;8.70;99.90
53264;DHT22;39153;52.680;6.172;2023-05-24T03:49:40;8.70;99.90
53264;DHT22;39153;52.680;6.172;2023-05-24T03:52:06;8.70;99.90
53264;DHT22;39153;52.680;6.172;2023-05-24T03:54:31;8.70;99.90
53264;DHT22;39153;52.680;6.172;2023-05-24T03:56:57;8.70;99.90
53264;DHT22;39153;52.680;6.172;2023-05-24T03:59:23;8.70;99.90
53264;DHT22;39153;52.680;6.172;2023-05-24T04:01:49;8.70;99.90
53264;DHT22;39153;52.680;6.172;2023-05-24T04:04:14;8.70;99.90
53264;DHT22;39153;52.680;6.172;2023-05-24T04:06:40;8.70;99.90
53264;DHT22;39153;52.680;6.172;2023-05-24T04:09:06;8.70;99.90
53264;DHT22;39153;52.680;6.172;2023-05-24T04:11:32;8.70;99.90
53264;DHT22;39153;52.680;6.172;2023-05-24T04:13:58;8.70;99.90
53264;DHT22;39153;52.680;6.172;2023-05-24T04:16:27;8.70;99.90
53264;DHT22;39153;52.680;6.172;2023-05-24T04:18:56;8.70;99.90
53264;DHT22;39153;52.680;6.172;2023-05-24T04:21:22;8.80;99.90
53264;DHT22;39153;52.680;6.172;2023-05-24T04:23:48;8.80;99.90
53264;DHT22;39153;52.680;6.172;2023-05-24T04:26:13;8.70;99.90
53264;DHT22;39153;52.680;6.172;2023-05-24T04:28:40;8.80;99.90
53264;DHT22;39153;52.680;6.172;2023-05-24T04:31:06;8.80;99.90
53264;DHT22;39153;52.680;6.172;2023-05-24T04:33:34;8.90;99.90
53264;DHT22;39153;52.680;6.172;2023-05-24T04:36:00;8.90;99.90
53264;DHT22;39153;52.680;6.172;2023-05-24T04:38:27;8.80;99.90
53264;DHT22;39153;52.680;6.172;2023-05-24T04:41:03;8.90;99.90
53264;DHT22;39153;52.680;6.172;2023-05-24T04:43:31;8.90;99.90
53264;DHT22;39153;52.680;6.172;2023-05-24T04:45:57;9.00;99.90
53264;DHT22;39153;52.680;6.172;2023-05-24T04:48:23;9.00;99.90
53264;DHT22;39153;52.680;6.172;2023-05-24T04:50:56;9.00;99.90
53264;DHT22;39153;52.680;6.172;2023-05-24T04:53:23;9.10;99.90
53264;DHT22;39153;52.680;6.172;2023-05-24T04:55:49;9.10;99.90
53264;DHT22;39153;52.680;6.172;2023-05-24T04:58:16;9.10;99.90
53264;DHT22;39153;52.680;6.172;2023-05-24T05:00:42;9.10;99.90
53264;DHT22;39153;52.680;6.172;2023-05-24T05:03:08;9.10;99.90
53264;DHT22;39153;52.680;6.172;2023-05-24T05:05:34;9.10;99.90
53264;DHT22;39153;52.680;6.172;2023-05-24T05:08:00;9.20;99.90
53264;DHT22;39153;52.680;6.172;2023-05-24T05:10:26;9.30;99.90
53264;DHT22;39153;52.680;6.172;2023-05-24T05:12:52;9.40;99.90
53264;DHT22;39153;52.680;6.172;2023-05-24T05:15:20;9.40;99.90
53264;DHT22;39153;52.680;6.172;2023-05-24T05:17:46;9.40;99.90
53264;DHT22;39153;52.680;6.172;2023-05-24T05:20:12;9.50;99.90
53264;DHT22;39153;52.680;6.172;2023-05-24T05:22:38;9.60;99.90
53264;DHT22;39153;52.680;6.172;2023-05-24T05:25:04;9.60;99.90
53264;DHT22;39153;52.680;6.172;2023-05-24T05:27:30;9.60;99.90
53264;DHT22;39153;52.680;6.172;2023-05-24T05:29:55;9.70;99.90
53264;DHT22;39153;52.680;6.172;2023-05-24T05:32:21;9.80;99.90
53264;DHT22;39153;52.680;6.172;2023-05-24T05:34:47;9.90;99.90
53264;DHT22;39153;52.680;6.172;2023-05-24T05:37:12;10.00;99.90
53264;DHT22;39153;52.680;6.172;2023-05-24T05:39:38;10.00;99.90
53264;DHT22;39153;52.680;6.172;2023-05-24T05:42:04;10.10;99.90
53264;DHT22;39153;52.680;6.172;2023-05-24T05:44:30;10.10;99.90
53264;DHT22;39153;52.680;6.172;2023-05-24T05:46:55;10.00;99.90
53264;DHT22;39153;52.680;6.172;2023-05-24T05:49:21;10.10;99.90
53264;DHT22;39153;52.680;6.172;2023-05-24T05:51:47;10.10;99.90
53264;DHT22;39153;52.680;6.172;2023-05-24T05:54:13;10.20;99.90
53264;DHT22;39153;52.680;6.172;2023-05-24T05:56:40;10.20;99.90
53264;DHT22;39153;52.680;6.172;2023-05-24T05:59:13;10.20;99.90
53264;DHT22;39153;52.680;6.172;2023-05-24T06:01:40;10.30;99.90
53264;DHT22;39153;52.680;6.172;2023-05-24T06:04:06;10.30;99.90
53264;DHT22;39153;52.680;6.172;2023-05-24T06:06:32;10.40;99.90
53264;DHT22;39153;52.680;6.172;2023-05-24T06:08:58;10.40;99.90
53264;DHT22;39153;52.680;6.172;2023-05-24T06:11:25;10.50;99.90
53264;DHT22;39153;52.680;6.172;2023-05-24T06:13:52;10.50;99.90
53264;DHT22;39153;52.680;6.172;2023-05-24T06:16:17;10.60;99.90
53264;DHT22;39153;52.680;6.172;2023-05-24T06:18:44;10.60;99.90
53264;DHT22;39153;52.680;6.172;2023-05-24T06:21:10;10.60;99.90
53264;DHT22;39153;52.680;6.172;2023-05-24T06:23:36;10.70;99.90
53264;DHT22;39153;52.680;6.172;2023-05-24T06:26:02;10.70;99.90
53264;DHT22;39153;52.680;6.172;2023-05-24T06:28:28;10.60;99.90
53264;DHT22;39153;52.680;6.172;2023-05-24T06:30:54;10.70;99.90
53264;DHT22;39153;52.680;6.172;2023-05-24T06:33:20;10.70;99.90
53264;DHT22;39153;52.680;6.172;2023-05-24T06:35:47;10.80;99.90
53264;DHT22;39153;52.680;6.172;2023-05-24T06:38:12;10.90;99.90
53264;DHT22;39153;52.680;6.172;2023-05-24T06:40:38;10.90;99.90
53264;DHT22;39153;52.680;6.172;2023-05-24T06:43:04;10.90;99.90
53264;DHT22;39153;52.680;6.172;2023-05-24T06:45:30;11.00;99.90
53264;DHT22;39153;52.680;6.172;2023-05-24T06:47:56;11.10;99.90
53264;DHT22;39153;52.680;6.172;2023-05-24T06:50:21;11.10;99.90
53264;DHT22;39153;52.680;6.172;2023-05-24T06:52:47;11.20;99.90
53264;DHT22;39153;52.680;6.172;2023-05-24T06:55:12;11.20;99.90
53264;DHT22;39153;52.680;6.172;2023-05-24T06:57:38;11.30;99.90
53264;DHT22;39153;52.680;6.172;2023-05-24T07:00:05;11.40;99.90
53264;DHT22;39153;52.680;6.172;2023-05-24T07:02:40;11.50;99.90
53264;DHT22;39153;52.680;6.172;2023-05-24T07:05:06;11.60;99.90
53264;DHT22;39153;52.680;6.172;2023-05-24T07:07:39;11.60;99.90
53264;DHT22;39153;52.680;6.172;2023-05-24T07:10:07;11.70;99.90
53264;DHT22;39153;52.680;6.172;2023-05-24T07:12:33;11.70;99.90
53264;DHT22;39153;52.680;6.172;2023-05-24T07:14:59;11.90;99.90
53264;DHT22;39153;52.680;6.172;2023-05-24T07:17:25;11.90;99.90
53264;DHT22;39153;52.680;6.172;2023-05-24T07:19:50;12.00;99.90
53264;DHT22;39153;52.680;6.172;2023-05-24T07:22:16;12.10;99.90
53264;DHT22;39153;52.680;6.172;2023-05-24T07:24:42;12.10;99.90
53264;DHT22;39153;52.680;6.172;2023-05-24T07:27:08;12.20;99.90
53264;DHT22;39153;52.680;6.172;2023-05-24T07:29:34;12.30;99.90
53264;DHT22;39153;52.680;6.172;2023-05-24T07:32:00;12.30;99.90
53264;DHT22;39153;52.680;6.172;2023-05-24T07:34:26;12.40;99.90
53264;DHT22;39153;52.680;6.172;2023-05-24T07:36:54;12.50;99.90
53264;DHT22;39153;52.680;6.172;2023-05-24T07:39:21;12.50;99.90
53264;DHT22;39153;52.680;6.172;2023-05-24T07:41:47;12.50;99.90
53264;DHT22;39153;52.680;6.172;2023-05-24T07:44:13;12.60;99.90
53264;DHT22;39153;52.680;6.172;2023-05-24T07:46:39;12.60;99.90
53264;DHT22;39153;52.680;6.172;2023-05-24T07:49:05;12.70;99.90
53264;DHT22;39153;52.680;6.172;2023-05-24T07:51:30;12.80;99.90
53264;DHT22;39153;52.680;6.172;2023-05-24T07:53:57;12.80;99.90
53264;DHT22;39153;52.680;6.172;2023-05-24T07:56:22;12.90;99.90
53264;DHT22;39153;52.680;6.172;2023-05-24T07:58:49;12.90;99.90
53264;DHT22;39153;52.680;6.172;2023-05-24T08:01:16;12.90;99.90
53264;DHT22;39153;52.680;6.172;2023-05-24T08:03:45;12.80;99.90
53264;DHT22;39153;52.680;6.172;2023-05-24T08:06:11;12.80;99.90
53264;DHT22;39153;52.680;6.172;2023-05-24T08:08:38;12.80;99.90
53264;DHT22;39153;52.680;6.172;2023-05-24T08:11:05;12.70;99.90
53264;DHT22;39153;52.680;6.172;2023-05-24T08:13:32;12.80;99.90
53264;DHT22;39153;52.680;6.172;2023-05-24T08:15:58;12.90;99.90
53264;DHT22;39153;52.680;6.172;2023-05-24T08:18:24;13.10;99.90
53264;DHT22;39153;52.680;6.172;2023-05-24T08:20:50;13.10;99.90
53264;DHT22;39153;52.680;6.172;2023-05-24T08:23:16;13.10;99.90
53264;DHT22;39153;52.680;6.172;2023-05-24T08:25:42;13.10;99.90
53264;DHT22;39153;52.680;6.172;2023-05-24T08:28:07;13.20;99.90
53264;DHT22;39153;52.680;6.172;2023-05-24T08:30:35;13.20;99.90
53264;DHT22;39153;52.680;6.172;2023-05-24T08:33:01;13.30;99.90
53264;DHT22;39153;52.680;6.172;2023-05-24T08:35:27;13.40;99.90
53264;DHT22;39153;52.680;6.172;2023-05-24T08:37:53;13.50;99.90
53264;DHT22;39153;52.680;6.172;2023-05-24T08:40:19;13.50;99.90
53264;DHT22;39153;52.680;6.172;2023-05-24T08:42:44;13.60;99.90
53264;DHT22;39153;52.680;6.172;2023-05-24T08:45:12;13.80;99.90
53264;DHT22;39153;52.680;6.172;2023-05-24T08:47:38;13.90;99.90
53264;DHT22;39153;52.680;6.172;2023-05-24T08:50:06;13.90;99.90
53264;DHT22;39153;52.680;6.172;2023-05-24T08:52:33;14.00;99.90
53264;DHT22;39153;52.680;6.172;2023-05-24T08:54:59;14.20;99.90
53264;DHT22;39153;52.680;6.172;2023-05-24T08:57:26;14.40;99.90
53264;DHT22;39153;52.680;6.172;2023-05-24T08:59:52;14.50;99.90
53264;DHT22;39153;52.680;6.172;2023-05-24T09:02:20;14.50;99.90
53264;DHT22;39153;52.680;6.172;2023-05-24T09:04:48;14.50;99.90
53264;DHT22;39153;52.680;6.172;2023-05-24T09:07:17;14.50;99.90
53264;DHT22;39153;52.680;6.172;2023-05-24T09:09:47;14.40;99.90
53264;DHT22;39153;52.680;6.172;2023-05-24T09:12:16;14.30;99.90
53264;DHT22;39153;52.680;6.172;2023-05-24T09:14:45;14.40;99.90
53264;DHT22;39153;52.680;6.172;2023-05-24T09:17:13;14.40;99.90
53264;DHT22;39153;52.680;6.172;2023-05-24T09:19:44;14.40;99.90
53264;DHT22;39153;52.680;6.172;2023-05-24T09:22:12;14.40;99.90
53264;DHT22;39153;52.680;6.172;2023-05-24T09:24:46;14.30;99.90
53264;DHT22;39153;52.680;6.172;2023-05-24T09:27:14;14.50;99.90
53264;DHT22;39153;52.680;6.172;2023-05-24T09:29:41;14.60;99.90
53264;DHT22;39153;52.680;6.172;2023-05-24T09:32:08;14.80;99.90
53264;DHT22;39153;52.680;6.172;2023-05-24T09:34:41;14.80;99.90
53264;DHT22;39153;52.680;6.172;2023-05-24T09:37:15;14.90;99.90
53264;DHT22;39153;52.680;6.172;2023-05-24T09:39:45;15.10;99.90
53264;DHT22;39153;52.680;6.172;2023-05-24T09:42:18;15.20;99.90
53264;DHT22;39153;52.680;6.172;2023-05-24T09:45:09;15.50;99.90
53264;DHT22;39153;52.680;6.172;2023-05-24T09:47:37;15.80;99.90
53264;DHT22;39153;52.680;6.172;2023-05-24T09:50:04;15.90;99.90
53264;DHT22;39153;52.680;6.172;2023-05-24T09:52:34;15.80;99.90
53264;DHT22;39153;52.680;6.172;2023-05-24T09:55:19;15.70;99.90
53264;DHT22;39153;52.680;6.172;2023-05-24T09:57:49;15.80;99.90
53264;DHT22;39153;52.680;6.172;2023-05-24T10:00:21;16.10;99.90
53264;DHT22;39153;52.680;6.172;2023-05-24T10:03:00;16.30;99.90
53264;DHT22;39153;52.680;6.172;2023-05-24T10:05:27;16.30;99.90
53264;DHT22;39153;52.680;6.172;2023-05-24T10:07:54;16.30;99.90
53264;DHT22;39153;52.680;6.172;2023-05-24T10:10:19;16.30;99.90
53264;DHT22;39153;52.680;6.172;2023-05-24T10:12:46;16.50;99.90
53264;DHT22;39153;52.680;6.172;2023-05-24T10:15:12;16.40;99.90
53264;DHT22;39153;52.680;6.172;2023-05-24T10:17:38;16.40;99.90
53264;DHT22;39153;52.680;6.172;2023-05-24T10:20:04;16.50;99.90
53264;DHT22;39153;52.680;6.172;2023-05-24T10:22:36;16.60;99.90
53264;DHT22;39153;52.680;6.172;2023-05-24T10:25:05;16.50;99.90
53264;DHT22;39153;52.680;6.172;2023-05-24T10:27:32;16.50;99.90
53264;DHT22;39153;52.680;6.172;2023-05-24T10:30:25;16.40;99.90
53264;DHT22;39153;52.680;6.172;2023-05-24T10:32:51;16.30;99.90
53264;DHT22;39153;52.680;6.172;2023-05-24T10:35:18;16.20;99.90
53264;DHT22;39153;52.680;6.172;2023-05-24T10:37:48;16.10;99.90
53264;DHT22;39153;52.680;6.172;2023-05-24T10:40:18;16.20;99.90
53264;DHT22;39153;52.680;6.172;2023-05-24T10:42:47;16.20;99.90
53264;DHT22;39153;52.680;6.172;2023-05-24T10:45:32;16.20;99.90
53264;DHT22;39153;52.680;6.172;2023-05-24T10:50:38;16.40;99.90
53264;DHT22;39153;52.680;6.172;2023-05-24T10:53:17;16.40;99.90
53264;DHT22;39153;52.680;6.172;2023-05-24T10:55:57;16.40;99.90
53264;DHT22;39153;52.680;6.172;2023-05-24T11:01:27;16.50;99.90
53264;DHT22;39153;52.680;6.172;2023-05-24T11:07:02;16.40;99.90
53264;DHT22;39153;52.680;6.172;2023-05-24T11:09:28;16.50;99.90
53264;DHT22;39153;52.680;6.172;2023-05-24T11:12:06;16.50;99.90
53264;DHT22;39153;52.680;6.172;2023-05-24T11:14:37;16.50;99.90
53264;DHT22;39153;52.680;6.172;2023-05-24T11:17:05;16.60;99.90
53264;DHT22;39153;52.680;6.172;2023-05-24T11:19:35;16.80;99.90
53264;DHT22;39153;52.680;6.172;2023-05-24T11:22:07;16.90;99.90
53264;DHT22;39153;52.680;6.172;2023-05-24T11:24:34;16.90;99.90
53264;DHT22;39153;52.680;6.172;2023-05-24T11:27:00;16.80;99.90
53264;DHT22;39153;52.680;6.172;2023-05-24T11:29:30;16.80;99.90
53264;DHT22;39153;52.680;6.172;2023-05-24T11:31:58;16.80;99.90
53264;DHT22;39153;52.680;6.172;2023-05-24T11:34:29;16.90;99.90
53264;DHT22;39153;52.680;6.172;2023-05-24T11:36:57;17.00;99.90
53264;DHT22;39153;52.680;6.172;2023-05-24T11:39:23;17.10;99.90
53264;DHT22;39153;52.680;6.172;2023-05-24T11:41:53;17.00;99.90
53264;DHT22;39153;52.680;6.172;2023-05-24T11:44:19;16.90;99.90
53264;DHT22;39153;52.680;6.172;2023-05-24T11:46:46;16.80;99.90
53264;DHT22;39153;52.680;6.172;2023-05-24T11:49:13;16.70;99.90
53264;DHT22;39153;52.680;6.172;2023-05-24T11:51:39;16.60;99.90
53264;DHT22;39153;52.680;6.172;2023-05-24T11:54:05;16.70;99.90
53264;DHT22;39153;52.680;6.172;2023-05-24T11:56:31;17.10;99.90
53264;DHT22;39153;52.680;6.172;2023-05-24T11:59:35;17.50;99.90
53264;DHT22;39153;52.680;6.172;2023-05-24T12:02:04;18.10;99.90
53264;DHT22;39153;52.680;6.172;2023-05-24T12:04:31;18.20;99.90
53264;DHT22;39153;52.680;6.172;2023-05-24T12:06:57;18.00;99.90
53264;DHT22;39153;52.680;6.172;2023-05-24T12:09:24;17.70;99.90
53264;DHT22;39153;52.680;6.172;2023-05-24T12:11:50;17.40;99.90
53264;DHT22;39153;52.680;6.172;2023-05-24T12:14:18;17.10;99.90
53264;DHT22;39153;52.680;6.172;2023-05-24T12:16:45;16.90;99.90
53264;DHT22;39153;52.680;6.172;2023-05-24T12:19:22;16.80;99.90
53264;DHT22;39153;52.680;6.172;2023-05-24T12:21:54;16.90;99.90
53264;DHT22;39153;52.680;6.172;2023-05-24T12:24:21;17.20;99.90
53264;DHT22;39153;52.680;6.172;2023-05-24T12:26:47;17.40;99.90
53264;DHT22;39153;52.680;6.172;2023-05-24T12:29:14;17.30;99.90
53264;DHT22;39153;52.680;6.172;2023-05-24T12:31:41;17.20;99.90
53264;DHT22;39153;52.680;6.172;2023-05-24T12:34:11;16.90;99.90
53264;DHT22;39153;52.680;6.172;2023-05-24T12:36:37;16.70;99.90
53264;DHT22;39153;52.680;6.172;2023-05-24T12:39:20;16.60;99.90
53264;DHT22;39153;52.680;6.172;2023-05-24T12:41:50;16.60;99.90
53264;DHT22;39153;52.680;6.172;2023-05-24T12:44:20;16.60;99.90
53264;DHT22;39153;52.680;6.172;2023-05-24T12:46:46;16.70;99.90
53264;DHT22;39153;52.680;6.172;2023-05-24T12:49:12;16.90;99.90
53264;DHT22;39153;52.680;6.172;2023-05-24T12:51:38;16.90;99.90
53264;DHT22;39153;52.680;6.172;2023-05-24T12:54:04;16.80;99.90
53264;DHT22;39153;52.680;6.172;2023-05-24T12:56:30;16.80;99.90
53264;DHT22;39153;52.680;6.172;2023-05-24T12:58:55;16.80;99.90
53264;DHT22;39153;52.680;6.172;2023-05-24T13:01:21;16.70;99.90
53264;DHT22;39153;52.680;6.172;2023-05-24T13:03:47;16.70;99.90
53264;DHT22;39153;52.680;6.172;2023-05-24T13:06:12;16.70;99.90
53264;DHT22;39153;52.680;6.172;2023-05-24T13:08:38;16.80;99.90
53264;DHT22;39153;52.680;6.172;2023-05-24T13:11:04;16.70;99.90
53264;DHT22;39153;52.680;6.172;2023-05-24T13:13:29;16.60;99.90
53264;DHT22;39153;52.680;6.172;2023-05-24T13:15:57;16.50;99.90
53264;DHT22;39153;52.680;6.172;2023-05-24T13:18:23;16.40;99.90
53264;DHT22;39153;52.680;6.172;2023-05-24T13:20:50;16.40;99.90
53264;DHT22;39153;52.680;6.172;2023-05-24T13:23:16;16.40;99.90
53264;DHT22;39153;52.680;6.172;2023-05-24T13:25:42;16.30;99.90
53264;DHT22;39153;52.680;6.172;2023-05-24T13:28:08;16.30;99.90
53264;DHT22;39153;52.680;6.172;2023-05-24T13:30:35;16.30;99.90
53264;DHT22;39153;52.680;6.172;2023-05-24T13:33:00;16.30;99.90
53264;DHT22;39153;52.680;6.172;2023-05-24T13:35:26;16.30;99.90
53264;DHT22;39153;52.680;6.172;2023-05-24T13:37:52;16.30;99.90
53264;DHT22;39153;52.680;6.172;2023-05-24T13:40:18;16.30;99.90
53264;DHT22;39153;52.680;6.172;2023-05-24T13:42:44;16.30;99.90
53264;DHT22;39153;52.680;6.172;2023-05-24T13:45:10;16.40;99.90
53264;DHT22;39153;52.680;6.172;2023-05-24T13:47:36;16.40;99.90
53264;DHT22;39153;52.680;6.172;2023-05-24T13:50:02;16.30;99.90
53264;DHT22;39153;52.680;6.172;2023-05-24T13:52:29;16.30;99.90
53264;DHT22;39153;52.680;6.172;2023-05-24T13:54:55;16.30;99.90
53264;DHT22;39153;52.680;6.172;2023-05-24T13:57:22;16.30;99.90
53264;DHT22;39153;52.680;6.172;2023-05-24T13:59:48;16.30;99.90
53264;DHT22;39153;52.680;6.172;2023-05-24T14:02:13;16.30;99.90
53264;DHT22;39153;52.680;6.172;2023-05-24T14:04:39;16.40;99.90
53264;DHT22;39153;52.680;6.172;2023-05-24T14:07:05;16.40;99.90
53264;DHT22;39153;52.680;6.172;2023-05-24T14:09:33;16.60;99.90
53264;DHT22;39153;52.680;6.172;2023-05-24T14:11:59;16.60;99.90
53264;DHT22;39153;52.680;6.172;2023-05-24T14:14:26;16.70;99.90
53264;DHT22;39153;52.680;6.172;2023-05-24T14:16:52;16.70;99.90
53264;DHT22;39153;52.680;6.172;2023-05-24T14:19:19;16.60;99.90
53264;DHT22;39153;52.680;6.172;2023-05-24T14:21:45;16.50;99.90
53264;DHT22;39153;52.680;6.172;2023-05-24T14:24:11;16.50;99.90
53264;DHT22;39153;52.680;6.172;2023-05-24T14:26:36;16.40;99.90
53264;DHT22;39153;52.680;6.172;2023-05-24T14:29:02;16.30;99.90
53264;DHT22;39153;52.680;6.172;2023-05-24T14:31:28;16.20;99.90
53264;DHT22;39153;52.680;6.172;2023-05-24T14:33:54;16.10;99.90
53264;DHT22;39153;52.680;6.172;2023-05-24T14:36:19;16.10;99.90
53264;DHT22;39153;52.680;6.172;2023-05-24T14:38:45;16.10;99.90
53264;DHT22;39153;52.680;6.172;2023-05-24T14:41:11;16.20;99.90
53264;DHT22;39153;52.680;6.172;2023-05-24T14:43:36;16.30;99.90
53264;DHT22;39153;52.680;6.172;2023-05-24T14:46:02;16.30;99.90
53264;DHT22;39153;52.680;6.172;2023-05-24T14:48:28;16.40;99.90
53264;DHT22;39153;52.680;6.172;2023-05-24T14:50:53;16.40;99.90
53264;DHT22;39153;52.680;6.172;2023-05-24T14:53:19;16.40;99.90
53264;DHT22;39153;52.680;6.172;2023-05-24T14:55:45;16.50;99.90
53264;DHT22;39153;52.680;6.172;2023-05-24T14:58:11;16.50;99.90
53264;DHT22;39153;52.680;6.172;2023-05-24T15:00:37;16.50;99.90
53264;DHT22;39153;52.680;6.172;2023-05-24T15:03:04;16.50;99.90
53264;DHT22;39153;52.680;6.172;2023-05-24T15:05:33;16.60;99.90
53264;DHT22;39153;52.680;6.172;2023-05-24T15:07:59;16.60;99.90
53264;DHT22;39153;52.680;6.172;2023-05-24T15:10:25;16.60;99.90
53264;DHT22;39153;52.680;6.172;2023-05-24T15:12:51;16.70;99.90
53264;DHT22;39153;52.680;6.172;2023-05-24T15:15:16;16.70;99.90
53264;DHT22;39153;52.680;6.172;2023-05-24T15:17:43;16.80;99.90
53264;DHT22;39153;52.680;6.172;2023-05-24T15:20:09;16.90;99.90
53264;DHT22;39153;52.680;6.172;2023-05-24T15:22:35;17.00;99.90
53264;DHT22;39153;52.680;6.172;2023-05-24T15:25:00;17.10;99.90
53264;DHT22;39153;52.680;6.172;2023-05-24T15:27:26;17.20;99.90
53264;DHT22;39153;52.680;6.172;2023-05-24T15:29:52;17.30;99.90
53264;DHT22;39153;52.680;6.172;2023-05-24T15:32:23;17.20;99.90
53264;DHT22;39153;52.680;6.172;2023-05-24T15:34:49;17.10;99.90
53264;DHT22;39153;52.680;6.172;2023-05-24T15:37:15;17.10;99.90
53264;DHT22;39153;52.680;6.172;2023-05-24T15:39:44;17.10;99.90
53264;DHT22;39153;52.680;6.172;2023-05-24T15:42:09;17.10;99.90
53264;DHT22;39153;52.680;6.172;2023-05-24T15:44:35;17.20;99.90
53264;DHT22;39153;52.680;6.172;2023-05-24T15:47:01;17.30;99.90
53264;DHT22;39153;52.680;6.172;2023-05-24T15:49:26;17.40;99.90
53264;DHT22;39153;52.680;6.172;2023-05-24T15:51:52;17.40;99.90
53264;DHT22;39153;52.680;6.172;2023-05-24T15:54:18;17.40;99.90
53264;DHT22;39153;52.680;6.172;2023-05-24T15:56:44;17.30;99.90